createdAt,value
2022-10-16T11:38:24.919Z,24.16
2022-10-16T11:39:24.987Z,24.50
2022-10-16T11:40:25.609Z,25.01
2022-10-16T11:41:25.065Z,25.38
2022-10-16T11:42:26.111Z,25.80
2022-10-16T11:43:25.188Z,26.31
2022-10-16T11:44:25.281Z,25.91
2022-10-16T11:45:32.129Z,25.61
2022-10-16T11:46:25.368Z,24.90
2022-10-16T11:47:53.985Z,24.77
2022-10-16T11:48:25.514Z,24.49
2022-10-16T11:49:25.582Z,24.26
2022-10-16T11:50:26.120Z,24.19
2022-10-16T11:51:25.671Z,24.31
2022-10-16T11:52:25.739Z,24.45
2022-10-16T11:53:26.614Z,24.56
2022-10-16T11:54:25.892Z,24.52
2022-10-16T11:55:26.616Z,24.80
2022-10-16T11:56:26.016Z,24.98
2022-10-16T11:57:26.182Z,24.76
2022-10-16T11:58:26.105Z,25.25
2022-10-16T11:59:26.169Z,25.64
2022-10-16T12:00:27.123Z,25.50
2022-10-16T12:01:26.358Z,25.25
2022-10-16T12:02:26.527Z,25.01
2022-10-16T12:03:26.496Z,24.61
2022-10-16T12:04:27.122Z,24.76
2022-10-16T12:05:26.546Z,24.75
2022-10-16T12:06:26.612Z,25.07
2022-10-16T12:07:26.671Z,25.37
2022-10-16T12:08:26.749Z,25.71
2022-10-16T12:09:26.794Z,25.90
2022-10-16T12:10:27.807Z,26.02
2022-10-16T12:11:26.938Z,26.50
2022-10-16T12:12:29.083Z,26.89
2022-10-16T12:13:27.630Z,27.16
2022-10-16T12:14:27.108Z,27.31
2022-10-16T12:15:46.940Z,27.43
2022-10-16T12:16:27.235Z,27.32
2022-10-16T12:17:27.319Z,27.21
2022-10-16T12:18:27.363Z,27.11
2022-10-16T12:19:28.136Z,27.09
2022-10-16T12:20:27.543Z,27.11
2022-10-16T12:21:27.553Z,26.59
2022-10-16T12:22:27.845Z,25.87
2022-10-16T12:23:28.185Z,25.75
2022-10-16T12:24:27.819Z,25.52
2022-10-16T12:25:27.831Z,25.06
2022-10-16T12:26:27.870Z,24.50
2022-10-16T12:27:27.939Z,24.32
2022-10-16T12:28:28.097Z,24.37
2022-10-16T12:29:28.082Z,24.49
2022-10-16T12:30:29.972Z,24.75
2022-10-16T12:31:28.187Z,25.09
2022-10-16T12:32:45.601Z,25.16
2022-10-16T12:33:28.317Z,24.82
2022-10-16T12:34:28.398Z,24.44
2022-10-16T12:35:28.458Z,24.13
2022-10-16T12:36:28.524Z,24.05
2022-10-16T12:37:33.510Z,24.10
2022-10-16T12:38:28.659Z,23.62
2022-10-16T12:39:28.697Z,23.20
2022-10-16T12:40:28.802Z,22.89
2022-10-16T12:41:28.840Z,22.52
2022-10-16T12:42:29.340Z,22.41
2022-10-16T12:43:30.072Z,22.16
2022-10-16T12:44:28.995Z,21.81
2022-10-16T12:45:29.115Z,21.67
2022-10-16T12:46:29.155Z,21.63
2022-10-16T12:47:29.190Z,21.75
2022-10-16T12:48:36.957Z,21.79
2022-10-16T12:49:30.155Z,21.76
2022-10-16T12:50:29.383Z,21.78
2022-10-16T12:51:30.169Z,22.02
2022-10-16T12:52:29.754Z,22.14
2022-10-16T12:53:29.553Z,22.25
2022-10-16T13:11:14.273Z,23.05
